Авиационная погода в Савонлинна

Регион: 
Погода METAR: 
EFSA 282220Z AUTO 12006KT CAVOK 16/09 Q1025
Время наблюдения
2022-06-28T22:20:00Z
Температура C
16.0
Точка росы
9.0
Направление ветра
120
Скорость ветра (узлы)
6
Метео видимость
6.21
Облачность
CAVOK
Нижняя граница облачности (футы)
Явления погоды
Условия полета
VFR